TimeCDT,TemperatureF,Dew PointF,Humidity,Sea Level PressureIn,VisibilityMPH,Wind Direction,Wind SpeedMPH,Gust SpeedMPH,PrecipitationIn,Events,Conditions,WindDirDegrees,DateUTC
12:15 AM,68.0,62.6,83,29.67,10.0,West,8.1,18.4,N/A,Thunderstorm,Mostly Cloudy,270,2012-10-25 05:15:00
12:35 AM,68.0,62.6,83,29.66,10.0,Calm,Calm,-,N/A,,Mostly Cloudy,0,2012-10-25 05:35:00
12:55 AM,68.0,62.6,83,29.65,10.0,Calm,Calm,-,N/A,,Overcast,0,2012-10-25 05:55:00
1:15 AM,66.2,62.6,88,29.65,10.0,Calm,Calm,-,N/A,,Overcast,0,2012-10-25 06:15:00
1:35 AM,64.4,62.6,94,29.65,10.0,Calm,Calm,-,N/A,Thunderstorm,Overcast,0,2012-10-25 06:35:00
1:55 AM,64.4,62.6,94,29.64,10.0,Calm,Calm,-,N/A,,Overcast,0,2012-10-25 06:55:00
2:35 AM,64.4,62.6,94,29.62,10.0,Calm,Calm,-,N/A,,Overcast,0,2012-10-25 07:35:00
2:55 AM,64.4,62.6,94,29.61,10.0,Calm,Calm,-,N/A,,Overcast,0,2012-10-25 07:55:00
3:15 AM,69.8,60.8,73,29.61,10.0,SSW,8.1,-,N/A,,Overcast,200,2012-10-25 08:15:00
3:35 AM,64.4,60.8,88,29.64,10.0,WNW,9.2,21.9,N/A,Rain,Light Rain,290,2012-10-25 08:35:00
3:55 AM,62.6,60.8,94,29.63,10.0,SE,3.5,-,N/A,Rain-Thunderstorm,Rain,130,2012-10-25 08:55:00
4:15 AM,62.6,60.8,94,29.62,10.0,ESE,3.5,-,N/A,Thunderstorm,Drizzle,120,2012-10-25 09:15:00
4:35 AM,62.6,60.8,94,29.61,7.0,Calm,Calm,-,N/A,,Drizzle,0,2012-10-25 09:35:00
4:55 AM,62.6,60.8,94,29.59,5.0,ENE,3.5,-,N/A,,Drizzle,70,2012-10-25 09:55:00
5:15 AM,62.6,60.8,94,29.59,7.0,Calm,Calm,-,N/A,Thunderstorm,Mostly Cloudy,0,2012-10-25 10:15:00
5:35 AM,60.8,60.8,100,29.58,7.0,Calm,Calm,-,N/A,Thunderstorm,Scattered Clouds,0,2012-10-25 10:35:00
5:55 AM,60.8,60.8,100,29.56,7.0,Calm,Calm,-,N/A,,Scattered Clouds,0,2012-10-25 10:55:00
6:35 AM,68.0,60.8,78,29.55,10.0,South,12.7,19.6,N/A,,Mostly Cloudy,170,2012-10-25 11:35:00
6:55 AM,68.0,60.8,78,29.55,10.0,South,18.4,24.2,N/A,,Overcast,180,2012-10-25 11:55:00
7:15 AM,69.8,59.0,68,29.56,10.0,South,13.8,28.8,N/A,Thunderstorm,Thunderstorm,190,2012-10-25 12:15:00
7:35 AM,68.0,59.0,73,29.55,10.0,SSW,10.4,26.5,N/A,Rain-Thunderstorm,Light Thunderstorms and Rain,200,2012-10-25 12:35:00
7:55 AM,55.4,53.6,94,29.58,7.0,West,10.4,16.1,N/A,Rain,Light Rain,280,2012-10-25 12:55:00
8:35 AM,55.4,53.6,94,29.60,7.0,Calm,Calm,-,0.15,Rain,Light Rain,0,2012-10-25 13:35:00
8:55 AM,55.4,53.6,94,29.58,10.0,ESE,3.5,-,0.15,,Mostly Cloudy,110,2012-10-25 13:55:00
9:15 AM,53.6,53.6,100,29.60,10.0,WNW,5.8,-,N/A,,Overcast,300,2012-10-25 14:15:00
9:55 AM,53.6,53.6,100,29.57,7.0,Calm,Calm,-,N/A,,Drizzle,0,2012-10-25 14:55:00
10:15 AM,53.6,53.6,100,29.58,10.0,West,6.9,-,N/A,Rain-Thunderstorm,Rain,280,2012-10-25 15:15:00
10:55 AM,53.6,51.8,94,29.60,5.0,WNW,8.1,19.6,0.04,Rain-Thunderstorm,Heavy Thunderstorms and Rain,290,2012-10-25 15:55:00
11:15 AM,51.8,51.8,100,29.59,5.0,WNW,8.1,-,0.02,Rain-Thunderstorm,Rain,290,2012-10-25 16:15:00
11:35 AM,51.8,50.0,94,29.61,10.0,WNW,12.7,20.7,0.03,Rain,Light Rain,300,2012-10-25 16:35:00
11:55 AM,51.8,50.0,94,29.60,10.0,WNW,9.2,-,0.04,,Drizzle,300,2012-10-25 16:55:00
12:15 PM,48.2,46.4,93,29.63,7.0,NW,12.7,20.7,0.01,Rain-Thunderstorm,Light Thunderstorms and Rain,310,2012-10-25 17:15:00
12:35 PM,46.4,44.6,93,29.65,4.0,WNW,11.5,18.4,0.06,Rain-Thunderstorm,Light Thunderstorms and Rain,300,2012-10-25 17:35:00
12:55 PM,46.4,44.6,93,29.66,7.0,WNW,10.4,-,0.07,Rain-Thunderstorm,Light Thunderstorms and Rain,300,2012-10-25 17:55:00
1:15 PM,44.6,42.8,93,29.70,4.0,West,19.6,25.3,0.05,Rain-Thunderstorm,Thunderstorms and Rain,280,2012-10-25 18:15:00
1:35 PM,44.6,41.0,87,29.68,10.0,WNW,13.8,21.9,0.06,Rain-Thunderstorm,Light Thunderstorms and Rain,300,2012-10-25 18:35:00
1:55 PM,42.8,41.0,93,29.68,7.0,NW,9.2,18.4,0.07,Rain-Thunderstorm,Rain,320,2012-10-25 18:55:00
2:15 PM,41.0,41.0,100,29.73,3.0,WNW,11.5,17.3,0.03,Rain-Thunderstorm,Light Thunderstorms and Rain,290,2012-10-25 19:15:00
2:35 PM,41.0,41.0,100,29.72,5.0,WNW,10.4,21.9,0.12,Rain-Thunderstorm,Thunderstorms and Rain,300,2012-10-25 19:35:00
2:55 PM,41.0,39.2,93,29.73,10.0,WNW,18.4,24.2,0.12,Rain-Thunderstorm,Light Thunderstorms and Rain,300,2012-10-25 19:55:00
3:15 PM,41.0,37.4,87,29.75,10.0,WNW,18.4,31.1,N/A,,Mostly Cloudy,300,2012-10-25 20:15:00
3:35 PM,39.2,37.4,93,29.77,5.0,West,17.3,26.5,N/A,,Light Drizzle,280,2012-10-25 20:35:00
3:55 PM,39.2,35.6,87,29.78,10.0,WNW,13.8,26.5,N/A,,Mostly Cloudy,300,2012-10-25 20:55:00
4:15 PM,39.2,37.4,93,29.80,10.0,WNW,15.0,27.6,N/A,,Mostly Cloudy,300,2012-10-25 21:15:00
4:35 PM,39.2,37.4,93,29.81,10.0,WNW,12.7,19.6,N/A,,Mostly Cloudy,290,2012-10-25 21:35:00
4:55 PM,39.2,37.4,93,29.83,4.0,WNW,13.8,23.0,N/A,,Mostly Cloudy,300,2012-10-25 21:55:00
5:15 PM,39.2,37.4,93,29.85,10.0,WNW,11.5,25.3,N/A,,Mostly Cloudy,300,2012-10-25 22:15:00
5:35 PM,39.2,35.6,87,29.87,10.0,WNW,11.5,18.4,N/A,,Mostly Cloudy,290,2012-10-25 22:35:00
5:55 PM,39.2,35.6,87,29.88,10.0,WNW,11.5,21.9,N/A,,Overcast,300,2012-10-25 22:55:00
6:15 PM,39.2,35.6,87,29.91,10.0,WNW,11.5,18.4,N/A,,Overcast,290,2012-10-25 23:15:00
6:35 PM,39.2,33.8,81,29.93,10.0,WNW,15.0,31.1,N/A,,Overcast,290,2012-10-25 23:35:00
6:55 PM,37.4,32.0,81,29.95,10.0,WNW,16.1,23.0,N/A,,Overcast,300,2012-10-25 23:55:00
7:15 PM,37.4,32.0,81,29.97,10.0,NW,15.0,26.5,N/A,,Overcast,310,2012-10-26 00:15:00
7:35 PM,37.4,32.0,81,29.99,10.0,WNW,12.7,29.9,N/A,,Overcast,290,2012-10-26 00:35:00
7:55 PM,37.4,32.0,81,30.00,10.0,WNW,8.1,-,N/A,,Overcast,290,2012-10-26 00:55:00
8:15 PM,37.4,32.0,81,30.02,10.0,WNW,15.0,23.0,N/A,,Overcast,290,2012-10-26 01:15:00
8:35 PM,37.4,32.0,81,30.02,10.0,WNW,15.0,23.0,N/A,,Overcast,290,2012-10-26 01:35:00
8:55 PM,37.4,32.0,81,30.04,10.0,WNW,11.5,21.9,N/A,,Overcast,290,2012-10-26 01:55:00
9:15 PM,37.4,32.0,81,30.05,10.0,West,11.5,16.1,N/A,,Overcast,280,2012-10-26 02:15:00
9:35 PM,37.4,30.2,75,30.06,10.0,West,9.2,17.3,N/A,,Mostly Cloudy,280,2012-10-26 02:35:00
9:55 PM,37.4,30.2,75,30.07,10.0,West,9.2,17.3,N/A,,Overcast,280,2012-10-26 02:55:00
10:15 PM,37.4,30.2,75,30.07,10.0,WNW,10.4,-,N/A,,Overcast,290,2012-10-26 03:15:00
10:35 PM,37.4,30.2,75,30.08,10.0,WNW,11.5,-,N/A,,Overcast,290,2012-10-26 03:35:00
10:55 PM,37.4,30.2,75,30.09,10.0,West,12.7,19.6,N/A,,Overcast,280,2012-10-26 03:55:00
11:15 PM,37.4,28.4,70,30.10,10.0,WNW,11.5,25.3,N/A,,Overcast,290,2012-10-26 04:15:00
11:55 PM,37.4,26.6,65,30.13,10.0,WNW,8.1,17.3,N/A,,Mostly Cloudy,290,2012-10-26 04:55:00